Time;durP1;ratioP1;P1;durP2;ratioP2;P2;SDS_P1;SDS_P2;PMS_P1;PMS_P2;Temp;Humidity;BMP_temperature;BMP_pressure;BME280_temperature;BME280_humidity;BME280_pressure;Samples;Min_cycle;Max_cycle;Signal;HPM_P1;HPM_P2
2020/12/26 14:29:04;;;;;;;16.32;12.15;;;;;;;3.38;74.97;99192.05;1792173;78;22709;-62
2020/12/26 14:31:32;;;;;;;14.70;10.43;;;;;;;3.36;75.13;99198.96;1763518;80;21588;-61
2020/12/26 14:34:03;;;;;;;17.23;11.25;;;;;;;3.41;75.23;99205.16;1761691;80;22275;-61
2020/12/26 14:36:32;;;;;;;16.87;11.55;;;;;;;3.44;75.25;99200.89;1766568;80;20963;-61
2020/12/26 14:39:00;;;;;;;18.10;11.68;;;;;;;3.48;75.25;99204.45;1758476;80;21659;-61
2020/12/26 14:41:29;;;;;;;14.73;11.68;;;;;;;3.52;75.27;99201.49;1764963;80;21619;-60
2020/12/26 14:43:58;;;;;;;17.80;11.65;;;;;;;3.57;75.23;99207.27;1767495;80;21643;-61
2020/12/26 14:46:27;;;;;;;13.48;9.90;;;;;;;3.61;75.21;99211.70;1765115;80;21354;-63
2020/12/26 14:48:57;;;;;;;11.97;8.33;;;;;;;3.66;75.16;99211.38;1761320;80;21079;-60
2020/12/26 14:51:26;;;;;;;13.72;9.80;;;;;;;3.70;75.06;99217.13;1765115;80;21601;-62
2020/12/26 14:53:56;;;;;;;12.80;9.05;;;;;;;3.74;75.03;99225.48;1765307;80;21468;-60
2020/12/26 14:56:28;;;;;;;12.20;9.70;;;;;;;3.77;74.92;99217.72;1717220;83;21166;-61
2020/12/26 14:58:57;;;;;;;12.10;9.40;;;;;;;3.80;74.85;99219.55;1713344;82;22640;-62
2020/12/26 15:01:30;;;;;;;12.93;9.40;;;;;;;3.79;74.70;99229.09;1727287;81;21213;-63
2020/12/26 15:03:58;;;;;;;13.22;9.15;;;;;;;3.79;74.57;99231.70;1683772;82;21044;-63
2020/12/26 15:06:30;;;;;;;9.33;6.62;;;;;;;3.76;74.55;99238.13;1717138;82;21741;-63
2020/12/26 15:08:58;;;;;;;7.25;5.50;;;;;;;3.69;74.39;99237.54;1710956;82;21166;-62
2020/12/26 15:11:28;;;;;;;9.13;4.78;;;;;;;3.52;74.26;99250.62;1712451;82;21232;-63
2020/12/26 15:13:56;;;;;;;5.87;4.97;;;;;;;3.28;74.31;99259.13;1707337;82;21486;-61
2020/12/26 15:16:25;;;;;;;6.03;4.60;;;;;;;3.11;74.55;99263.93;1728929;81;21610;-62
2020/12/26 15:18:53;;;;;;;7.37;5.10;;;;;;;2.95;74.81;99255.27;1729586;82;21478;-62
2020/12/26 15:21:23;;;;;;;5.25;4.58;;;;;;;2.77;75.04;99266.06;1704390;82;21108;-61
2020/12/26 15:23:51;;;;;;;5.78;4.17;;;;;;;2.61;75.15;99257.38;1732626;81;21381;-62
2020/12/26 15:26:20;;;;;;;5.25;3.60;;;;;;;2.42;75.05;99264.69;1724801;82;21545;-62
2020/12/26 15:28:51;;;;;;;5.10;3.10;;;;;;;2.23;75.12;99271.90;1708842;82;21151;-62
2020/12/26 15:31:20;;;;;;;6.55;3.62;;;;;;;2.06;75.25;99258.41;1745697;80;21141;-60
2020/12/26 15:33:51;;;;;;;4.72;3.35;;;;;;;1.93;75.33;99259.77;1748464;80;21689;-64
2020/12/26 15:36:19;;;;;;;3.77;2.90;;;;;;;1.81;75.42;99268.47;1748519;80;21561;-65
2020/12/26 15:38:48;;;;;;;3.55;2.77;;;;;;;1.72;75.46;99273.39;1748259;80;21016;-64
2020/12/26 15:41:19;;;;;;;4.03;3.00;;;;;;;1.68;75.61;99285.42;1746419;80;20994;-66
2020/12/26 15:43:50;;;;;;;4.10;3.17;;;;;;;1.65;75.72;99287.05;1747091;80;21208;-65
2020/12/26 15:46:25;;;;;;;5.00;3.17;;;;;;;1.63;75.66;99278.31;1731928;80;21113;-65
2020/12/26 15:48:59;;;;;;;4.08;3.10;;;;;;;1.54;75.64;99289.30;1750443;80;21357;-65
2020/12/26 15:51:27;;;;;;;4.30;3.10;;;;;;;1.48;75.77;99300.39;1743076;82;21166;-65
2020/12/26 15:53:56;;;;;;;3.42;3.00;;;;;;;1.46;75.90;99307.67;1738932;80;21193;-65
2020/12/26 15:56:31;;;;;;;3.47;2.98;;;;;;;1.46;75.99;99320.67;1745309;80;21713;-65
2020/12/26 15:59:01;;;;;;;4.40;3.08;;;;;;;1.48;76.08;99324.20;1749134;80;21028;-65
2020/12/26 16:01:30;;;;;;;4.08;3.27;;;;;;;1.51;76.09;99327.78;1741504;80;21591;-64
2020/12/26 16:03:59;;;;;;;4.25;2.95;;;;;;;1.49;76.10;99323.37;1749247;81;21157;-65
2020/12/26 16:06:32;;;;;;;3.92;3.00;;;;;;;1.48;76.12;99322.91;1747829;80;20947;-65
2020/12/26 16:09:05;;;;;;;3.83;3.20;;;;;;;1.47;76.14;99325.92;1747776;80;21202;-64
2020/12/26 16:11:34;;;;;;;3.40;2.65;;;;;;;1.48;76.15;99319.00;1747972;80;21575;-64
2020/12/26 16:14:06;;;;;;;3.33;2.87;;;;;;;1.50;76.17;99326.02;1760727;80;21912;-65
2020/12/26 16:16:37;;;;;;;5.85;3.45;;;;;;;1.52;76.09;99326.07;1750964;80;21188;-65
2020/12/26 16:19:06;;;;;;;3.85;3.33;;;;;;;1.50;75.99;99323.84;1752091;80;21567;-65
2020/12/26 16:21:34;;;;;;;5.85;3.72;;;;;;;1.49;76.03;99333.77;1700901;83;21179;-65
2020/12/26 16:24:03;;;;;;;7.12;3.80;;;;;;;1.50;76.14;99341.62;1700057;83;21244;-65
2020/12/26 16:26:33;;;;;;;5.35;4.10;;;;;;;1.54;76.22;99339.59;1751817;80;21327;-64
2020/12/26 16:29:02;;;;;;;4.15;3.52;;;;;;;1.57;76.22;99340.10;1734204;82;21200;-65
2020/12/26 16:31:33;;;;;;;4.45;3.60;;;;;;;1.61;76.27;99341.97;1715896;83;21510;-64
2020/12/26 16:34:02;;;;;;;4.67;3.55;;;;;;;1.66;76.32;99344.71;1719625;82;21073;-63
2020/12/26 16:36:31;;;;;;;5.40;4.05;;;;;;;1.70;76.29;99343.98;1720077;82;21164;-64
2020/12/26 16:39:00;;;;;;;5.87;4.10;;;;;;;1.78;76.30;99345.10;1715584;82;22111;-63
2020/12/26 16:41:32;;;;;;;6.72;4.42;;;;;;;1.85;76.23;99348.36;1719998;82;21171;-65
2020/12/26 16:44:01;;;;;;;5.70;4.37;;;;;;;1.92;76.19;99348.16;1720719;82;21190;-65
2020/12/26 16:46:32;;;;;;;6.55;4.85;;;;;;;1.99;76.06;99350.12;1721072;82;21044;-65
2020/12/26 16:49:02;;;;;;;7.17;4.75;;;;;;;2.03;75.93;99341.16;1720596;82;21641;-70
2020/12/26 16:51:31;;;;;;;30.43;5.25;;;;;;;2.08;75.77;99349.98;1720303;82;21217;-67
2020/12/26 16:53:59;;;;;;;7.33;4.55;;;;;;;2.12;75.64;99352.27;1723591;82;21170;-67
2020/12/26 16:56:29;;;;;;;6.58;5.12;;;;;;;2.15;75.49;99354.54;1691945;83;21209;-66
2020/12/26 16:59:00;;;;;;;9.38;7.40;;;;;;;2.19;75.30;99361.60;1708834;83;21159;-67
2020/12/26 17:01:29;;;;;;;13.60;8.38;;;;;;;2.23;75.10;99367.78;1708279;83;21150;-63
2020/12/26 17:03:58;;;;;;;11.40;8.05;;;;;;;2.26;75.10;99368.29;1656667;84;21203;-64
2020/12/26 17:06:33;;;;;;;11.00;6.65;;;;;;;2.30;75.09;99367.13;1681774;83;21197;-65
2020/12/26 17:09:04;;;;;;;7.80;5.15;;;;;;;2.35;75.12;99373.77;1657285;85;21750;-66
2020/12/26 17:11:33;;;;;;;7.37;5.00;;;;;;;2.38;75.03;99372.59;1623007;86;21185;-65
2020/12/26 17:14:02;;;;;;;6.30;4.20;;;;;;;2.43;75.02;99378.82;1703309;83;21177;-65
2020/12/26 17:16:30;;;;;;;7.20;4.65;;;;;;;2.42;74.94;99371.42;1659777;85;22122;-67
2020/12/26 17:18:58;;;;;;;6.17;4.62;;;;;;;2.41;74.79;99380.49;1636265;87;21171;-64
2020/12/26 17:21:27;;;;;;;6.53;5.10;;;;;;;2.39;74.73;99384.77;1643663;85;21153;-64
2020/12/26 17:23:55;;;;;;;4.55;3.85;;;;;;;2.38;74.67;99392.13;1629572;86;21251;-64
2020/12/26 17:26:26;;;;;;;5.45;4.28;;;;;;;2.36;74.65;99389.44;1632675;87;21225;-63
2020/12/26 17:28:55;;;;;;;3.87;3.42;;;;;;;2.34;74.67;99376.80;1624271;88;21387;-63
2020/12/26 17:31:25;;;;;;;4.50;3.55;;;;;;;2.31;74.67;99385.81;1624365;88;20987;-63
2020/12/26 17:34:00;;;;;;;4.97;3.83;;;;;;;2.27;74.68;99390.46;1624450;87;20947;-64
2020/12/26 17:36:28;;;;;;;4.28;3.52;;;;;;;2.24;74.72;99388.18;1624354;88;21102;-63
2020/12/26 17:38:57;;;;;;;5.75;4.35;;;;;;;2.21;74.77;99392.88;1624492;88;21097;-62
2020/12/26 17:41:28;;;;;;;5.67;3.75;;;;;;;2.19;74.85;99391.95;1629396;86;21440;-62
2020/12/26 17:43:57;;;;;;;5.70;4.22;;;;;;;2.18;74.93;99395.39;1634320;87;21110;-63
2020/12/26 17:46:29;;;;;;;4.67;4.17;;;;;;;2.18;74.97;99394.08;1651061;86;20936;-63
2020/12/26 17:49:01;;;;;;;7.95;4.58;;;;;;;2.15;75.01;99387.06;1648985;87;21553;-63
2020/12/26 17:51:29;;;;;;;7.10;5.08;;;;;;;2.13;75.05;99389.16;1627396;87;20954;-65
2020/12/26 17:54:03;;;;;;;6.85;4.85;;;;;;;2.09;75.12;99392.50;1625033;87;21282;-64
2020/12/26 17:56:34;;;;;;;7.45;4.92;;;;;;;2.05;75.24;99386.31;1681347;84;21075;-64
2020/12/26 17:59:02;;;;;;;6.60;5.22;;;;;;;2.03;75.31;99389.70;1669091;84;20946;-68
2020/12/26 18:01:35;;;;;;;12.20;5.78;;;;;;;2.00;75.35;99393.52;1699709;83;21093;-67
2020/12/26 18:04:05;;;;;;;7.83;5.70;;;;;;;1.97;75.41;99394.72;1690099;84;21042;-67
2020/12/26 18:06:35;;;;;;;10.68;6.22;;;;;;;1.97;75.48;99401.22;1690017;84;21275;-69
2020/12/26 18:09:03;;;;;;;12.98;6.70;;;;;;;1.92;75.46;99404.09;1690354;82;21542;-68
2020/12/26 18:11:32;;;;;;;23.80;7.03;;;;;;;1.81;75.51;99408.92;1698061;83;20945;-66
2020/12/26 18:14:02;;;;;;;13.53;7.08;;;;;;;1.77;75.67;99411.84;1710173;83;20944;-66
2020/12/26 18:16:30;;;;;;;16.40;6.47;;;;;;;1.75;75.86;99414.80;1710172;83;20897;-68
2020/12/26 18:18:59;;;;;;;11.40;7.05;;;;;;;1.77;75.98;99420.05;1710225;83;21461;-67
2020/12/26 18:21:29;;;;;;;12.23;7.42;;;;;;;1.77;76.08;99422.66;1713097;82;21093;-66
2020/12/26 18:23:58;;;;;;;10.43;7.20;;;;;;;1.78;76.14;99429.63;1739719;82;20950;-67
2020/12/26 18:26:37;;;;;;;10.28;7.35;;;;;;;1.77;76.23;99422.23;1739465;82;20939;-67
2020/12/26 18:29:06;;;;;;;10.38;7.05;;;;;;;1.72;76.26;99429.01;1740699;82;21127;-65
2020/12/26 18:31:35;;;;;;;10.80;7.15;;;;;;;1.69;76.35;99425.42;1740569;82;21326;-64
2020/12/26 18:34:04;;;;;;;13.20;7.58;;;;;;;1.64;76.40;99425.27;1740750;82;21093;-65
2020/12/26 18:36:33;;;;;;;12.90;7.97;;;;;;;1.61;76.48;99432.97;1739194;82;20922;-63
2020/12/26 18:39:04;;;;;;;10.82;7.80;;;;;;;1.58;76.50;99425.95;1739983;82;20899;-64
2020/12/26 18:41:32;;;;;;;11.48;7.90;;;;;;;1.57;76.55;99430.68;1742033;82;20935;-65
2020/12/26 18:44:02;;;;;;;11.55;7.80;;;;;;;1.55;76.61;99432.77;1741634;82;21422;-65
2020/12/26 18:46:31;;;;;;;11.83;7.42;;;;;;;1.52;76.65;99427.05;1742313;81;21465;-65
2020/12/26 18:49:00;;;;;;;10.93;7.17;;;;;;;1.49;76.71;99425.64;1740237;82;21480;-64
2020/12/26 18:51:32;;;;;;;10.00;7.55;;;;;;;1.48;76.80;99430.37;1742278;81;21480;-64
2020/12/26 18:54:03;;;;;;;13.43;7.60;;;;;;;1.48;76.86;99426.89;1740686;82;21494;-64
2020/12/26 18:56:33;;;;;;;14.83;8.65;;;;;;;1.46;76.90;99431.15;1736484;81;21365;-65
2020/12/26 18:59:02;;;;;;;15.75;11.08;;;;;;;1.43;76.94;99435.83;1736757;82;21499;-62
2020/12/26 19:01:31;;;;;;;16.90;12.90;;;;;;;1.42;76.98;99440.94;1736830;81;21496;-63
2020/12/26 19:04:00;;;;;;;16.67;14.15;;;;;;;1.38;77.02;99446.86;1737659;82;21492;-63
2020/12/26 19:06:28;;;;;;;15.08;11.85;;;;;;;1.34;77.06;99451.07;1739394;82;21492;-64
2020/12/26 19:08:57;;;;;;;13.38;10.78;;;;;;;1.34;77.13;99456.69;1739359;82;22071;-63
2020/12/26 19:11:28;;;;;;;14.40;9.53;;;;;;;1.33;77.14;99466.61;1737635;82;20999;-65
2020/12/26 19:13:56;;;;;;;10.43;7.83;;;;;;;1.31;77.18;99470.45;1736789;82;21591;-61
2020/12/26 19:16:27;;;;;;;12.18;8.23;;;;;;;1.30;77.23;99465.20;1736693;82;21176;-64
2020/12/26 19:18:56;;;;;;;11.08;7.70;;;;;;;1.29;77.21;99467.33;1736964;81;21172;-64
2020/12/26 19:21:24;;;;;;;11.73;8.08;;;;;;;1.25;77.21;99471.12;1736898;81;21197;-65
2020/12/26 19:23:57;;;;;;;10.48;7.75;;;;;;;1.23;77.18;99476.68;1736781;81;21152;-65
2020/12/26 19:26:29;;;;;;;10.10;7.60;;;;;;;1.20;77.13;99483.06;1736779;82;21140;-65
2020/12/26 19:28:57;;;;;;;9.93;7.12;;;;;;;1.18;77.15;99487.33;1736882;82;21156;-63
2020/12/26 19:31:28;;;;;;;10.35;8.20;;;;;;;1.17;77.13;99484.26;1728809;82;21571;-65
2020/12/26 19:33:56;;;;;;;11.38;7.83;;;;;;;1.16;77.15;99494.59;1727202;82;22121;-65
2020/12/26 19:36:25;;;;;;;10.68;7.78;;;;;;;1.12;77.12;99494.02;1741528;82;21125;-65
2020/12/26 19:38:57;;;;;;;9.85;7.80;;;;;;;1.12;77.16;99500.51;1744041;82;21580;-65
2020/12/26 19:41:26;;;;;;;11.43;8.23;;;;;;;1.11;77.21;99494.84;1740800;81;21646;-65
2020/12/26 19:43:56;;;;;;;13.35;8.08;;;;;;;1.12;77.23;99496.20;1738710;81;21124;-64
2020/12/26 19:46:25;;;;;;;10.68;8.13;;;;;;;1.12;77.22;99500.09;1739497;82;21586;-63
2020/12/26 19:48:55;;;;;;;11.33;8.25;;;;;;;1.12;77.24;99491.00;1729758;81;21493;-63
2020/12/26 19:51:24;;;;;;;13.08;8.20;;;;;;;1.13;77.21;99496.67;1730571;81;20931;-63
2020/12/26 19:53:56;;;;;;;13.03;8.58;;;;;;;1.12;77.19;99503.11;1731736;81;21200;-63
2020/12/26 19:56:24;;;;;;;11.60;8.10;;;;;;;1.11;77.10;99504.82;1730361;81;21173;-64
2020/12/26 19:58:54;;;;;;;12.00;7.97;;;;;;;1.10;77.05;99518.64;1736008;81;21372;-64
2020/12/26 20:01:23;;;;;;;11.40;8.13;;;;;;;1.09;76.99;99515.57;1732145;82;21061;-63
2020/12/26 20:03:53;;;;;;;8.48;6.30;;;;;;;1.09;76.87;99523.36;1735307;81;21061;-64
2020/12/26 20:06:23;;;;;;;7.42;5.53;;;;;;;1.07;76.75;99528.91;1731162;82;21082;-64
2020/12/26 20:08:53;;;;;;;8.68;5.47;;;;;;;1.01;76.59;99526.09;1735466;81;21072;-66
2020/12/26 20:11:25;;;;;;;6.80;5.03;;;;;;;0.98;76.46;99523.80;1731778;82;22312;-65
2020/12/26 20:13:54;;;;;;;7.03;4.87;;;;;;;0.95;76.38;99528.45;1717103;82;21196;-66
2020/12/26 20:16:24;;;;;;;7.00;5.08;;;;;;;0.92;76.33;99519.22;1735142;81;21152;-64
2020/12/26 20:18:53;;;;;;;7.97;5.10;;;;;;;0.91;76.30;99525.23;1735215;82;20927;-61
2020/12/26 20:21:31;;;;;;;7.33;5.10;;;;;;;0.89;76.21;99532.09;1730992;82;21062;-64
2020/12/26 20:23:59;;;;;;;6.53;5.25;;;;;;;0.87;76.11;99536.34;1735248;82;21377;-67
2020/12/26 20:26:28;;;;;;;7.33;5.05;;;;;;;0.86;76.05;99544.55;1734921;81;21615;-64
2020/12/26 20:28:57;;;;;;;6.80;4.90;;;;;;;0.86;75.94;99544.55;1735590;81;21587;-64
2020/12/26 20:31:31;;;;;;;7.45;4.78;;;;;;;0.84;75.81;99544.02;1716276;82;21571;-65
2020/12/26 20:34:01;;;;;;;5.83;4.50;;;;;;;0.83;75.72;99557.41;1735913;82;21235;-66
2020/12/26 20:36:30;;;;;;;6.87;4.72;;;;;;;0.84;75.67;99558.30;1712049;82;21216;-64
2020/12/26 20:38:59;;;;;;;5.78;4.17;;;;;;;0.84;75.59;99561.78;1735038;82;21580;-63
2020/12/26 20:41:28;;;;;;;6.83;5.00;;;;;;;0.85;75.52;99567.45;1735728;82;21121;-64
2020/12/26 20:43:57;;;;;;;5.85;4.87;;;;;;;0.88;75.51;99563.67;1734969;82;21095;-65
2020/12/26 20:46:27;;;;;;;5.33;4.67;;;;;;;0.89;75.44;99571.05;1734942;81;21132;-64
2020/12/26 20:48:58;;;;;;;7.10;5.25;;;;;;;0.90;75.37;99580.20;1735025;82;22130;-64
2020/12/26 20:51:28;;;;;;;10.05;6.05;;;;;;;0.90;75.27;99589.28;1734809;81;21148;-64
2020/12/26 20:53:57;;;;;;;9.63;6.15;;;;;;;0.88;75.14;99584.86;1716625;82;20958;-65
2020/12/26 20:56:26;;;;;;;8.30;5.55;;;;;;;0.87;75.11;99589.17;1735999;81;21583;-64
2020/12/26 20:58:56;;;;;;;10.18;6.03;;;;;;;0.87;75.04;99593.48;1739600;81;21116;-65
2020/12/26 21:01:24;;;;;;;7.62;5.42;;;;;;;0.87;75.03;99596.08;1739620;81;21449;-65
2020/12/26 21:03:52;;;;;;;9.70;5.70;;;;;;;0.87;75.02;99602.16;1739810;81;21503;-64
2020/12/26 21:06:22;;;;;;;8.05;5.05;;;;;;;0.85;74.98;99595.13;1742276;82;20938;-64
2020/12/26 21:08:51;;;;;;;8.35;5.22;;;;;;;0.84;74.99;99591.64;1741345;82;20903;-67
2020/12/26 21:11:21;;;;;;;9.63;5.30;;;;;;;0.82;74.96;99595.01;1740381;82;21033;-67
2020/12/26 21:13:50;;;;;;;8.68;5.78;;;;;;;0.80;74.94;99597.95;1740344;81;22123;-66
2020/12/26 21:16:19;;;;;;;9.20;5.42;;;;;;;0.79;74.94;99599.67;1739507;82;21124;-65
2020/12/26 21:18:49;;;;;;;8.28;5.70;;;;;;;0.76;74.95;99591.75;1733625;82;21464;-65
2020/12/26 21:21:22;;;;;;;8.98;5.97;;;;;;;0.75;74.98;99592.99;1709451;82;21188;-66
2020/12/26 21:23:51;;;;;;;10.70;6.03;;;;;;;0.76;75.08;99593.47;1732813;82;21069;-67
2020/12/26 21:26:24;;;;;;;11.15;6.87;;;;;;;0.76;75.17;99586.98;1739827;82;21448;-67
2020/12/26 21:28:54;;;;;;;10.65;6.72;;;;;;;0.78;75.23;99582.73;1739654;82;20918;-67
2020/12/26 21:31:23;;;;;;;10.28;6.72;;;;;;;0.79;75.27;99580.19;1739647;82;20934;-66
2020/12/26 21:33:52;;;;;;;10.43;6.50;;;;;;;0.79;75.31;99581.49;1739614;82;20954;-66
2020/12/26 21:36:33;;;;;;;9.08;6.15;;;;;;;0.80;75.33;99579.78;1739776;82;21465;-66
2020/12/26 21:39:06;;;;;;;8.45;6.42;;;;;;;0.77;75.35;99580.55;1693857;82;22133;-65
2020/12/26 21:41:34;;;;;;;;;;;;;;;0.73;75.41;99579.95;1741967;82;21077;-66
2020/12/26 21:44:02;;;;;;;10.68;7.22;;;;;;;0.70;75.47;99578.53;1739641;82;20173;-66
2020/12/26 21:46:31;;;;;;;10.45;7.15;;;;;;;0.66;75.51;99584.84;1736070;81;20987;-66
2020/12/26 21:49:00;;;;;;;13.55;9.08;;;;;;;0.60;75.54;99578.58;1721431;82;21496;-65
2020/12/26 21:51:28;;;;;;;14.75;11.83;;;;;;;0.56;75.64;99571.91;1721882;83;22056;-65
2020/12/26 21:53:56;;;;;;;16.27;11.78;;;;;;;0.53;75.75;99570.08;1731460;82;21556;-66
2020/12/26 21:56:24;;;;;;;16.25;10.32;;;;;;;0.50;75.87;99566.06;1729224;82;21153;-65
2020/12/26 21:58:53;;;;;;;14.05;9.78;;;;;;;0.48;75.95;99573.31;1725254;83;21923;-66
2020/12/26 22:01:21;;;;;;;13.72;8.85;;;;;;;0.45;76.04;99574.45;1720902;82;21509;-66
2020/12/26 22:03:50;;;;;;;14.53;9.50;;;;;;;0.42;76.16;99573.91;1715333;82;22790;-66
2020/12/26 22:06:18;;;;;;;12.10;8.60;;;;;;;0.41;76.28;99575.16;1724394;82;20959;-66
2020/12/26 22:08:47;;;;;;;10.08;7.65;;;;;;;0.41;76.36;99579.93;1724564;82;20955;-67
2020/12/26 22:14:00;;;;;;;12.18;7.58;;;;;;;0.42;76.38;99573.91;1829590;78;22758;-66
2020/12/26 22:16:31;;;;;;;11.70;7.72;;;;;;;0.35;76.33;99577.09;1809407;79;20966;-66
2020/12/26 22:18:59;;;;;;;10.35;7.17;;;;;;;0.35;76.33;99584.88;1809516;79;22343;-66
2020/12/26 22:21:28;;;;;;;10.08;6.87;;;;;;;0.34;76.30;99584.40;1806420;78;21571;-66
2020/12/26 22:23:57;;;;;;;11.12;7.12;;;;;;;0.35;76.30;99591.36;1805980;79;20994;-65
2020/12/26 22:26:27;;;;;;;10.78;6.85;;;;;;;0.34;76.23;99587.41;1779686;79;20993;-68
2020/12/26 22:28:56;;;;;;;11.43;6.40;;;;;;;0.34;76.16;99595.19;1777732;79;20989;-66
2020/12/26 22:31:26;;;;;;;9.23;6.35;;;;;;;0.33;76.08;99594.30;1798218;79;22339;-66
2020/12/26 22:33:56;;;;;;;7.15;5.40;;;;;;;0.32;75.99;99595.13;1808774;78;21524;-66
2020/12/26 22:36:24;;;;;;;9.10;6.08;;;;;;;0.32;75.92;99596.42;1809185;79;20974;-66
2020/12/26 22:38:52;;;;;;;8.28;5.67;;;;;;;0.33;75.86;99593.00;1807108;78;21598;-66
2020/12/26 22:41:21;;;;;;;7.70;5.60;;;;;;;0.33;75.80;99594.30;1808441;78;21156;-66
2020/12/26 22:43:50;;;;;;;10.80;6.62;;;;;;;0.35;75.72;99594.36;1801628;79;21202;-66
2020/12/26 22:46:19;;;;;;;9.53;6.60;;;;;;;0.33;75.66;99592.12;1793380;79;21136;-65
2020/12/26 22:48:48;;;;;;;10.30;6.10;;;;;;;0.33;75.62;99598.20;1796468;79;21547;-65
2020/12/26 22:51:19;;;;;;;8.33;5.92;;;;;;;0.34;75.60;99595.19;1809336;78;21010;-65
2020/12/26 22:53:48;;;;;;;7.28;5.53;;;;;;;0.34;75.54;99615.54;1807755;79;21095;-66
2020/12/26 22:56:20;;;;;;;6.70;5.47;;;;;;;0.36;75.52;99606.11;1777615;79;21364;-66
2020/12/26 22:58:49;;;;;;;8.68;5.97;;;;;;;0.39;75.49;99609.23;1793766;78;20938;-67
2020/12/26 23:01:17;;;;;;;7.25;5.80;;;;;;;0.39;75.46;99609.23;1807677;78;21018;-67
2020/12/26 23:03:47;;;;;;;9.13;6.22;;;;;;;0.41;75.39;99609.78;1796975;78;21131;-67
2020/12/26 23:06:16;;;;;;;8.88;6.80;;;;;;;0.40;75.37;99613.61;1809394;78;21132;-67
2020/12/26 23:08:46;;;;;;;8.73;6.50;;;;;;;0.41;75.36;99614.08;1804090;79;21046;-67
2020/12/26 23:11:16;;;;;;;9.20;6.70;;;;;;;0.40;75.31;99601.92;1809351;79;21592;-65
2020/12/26 23:13:45;;;;;;;9.03;6.10;;;;;;;0.38;75.26;99608.77;1813928;77;20962;-65
2020/12/26 23:16:14;;;;;;;9.53;6.42;;;;;;;0.37;75.18;99608.29;1815964;78;20977;-65
2020/12/26 23:18:42;;;;;;;8.05;6.17;;;;;;;0.35;75.15;99612.12;1809311;79;21013;-65
2020/12/26 23:21:12;;;;;;;11.73;6.92;;;;;;;0.36;75.12;99606.52;1783112;79;21362;-65
2020/12/26 23:23:41;;;;;;;8.60;6.28;;;;;;;0.35;75.11;99612.53;1784155;79;21481;-65
2020/12/26 23:26:09;;;;;;;9.35;7.17;;;;;;;0.36;75.11;99612.59;1783239;80;20910;-65
2020/12/26 23:28:39;;;;;;;9.38;7.15;;;;;;;0.37;75.08;99626.45;1785439;77;21472;-65
2020/12/26 23:31:15;;;;;;;9.05;7.00;;;;;;;0.35;74.97;99617.31;1785742;79;20895;-65
2020/12/26 23:33:43;;;;;;;10.25;7.78;;;;;;;0.34;74.89;99623.73;1783418;79;21445;-65
2020/12/26 23:36:14;;;;;;;11.57;7.75;;;;;;;0.31;74.84;99637.47;1783185;80;20969;-65
2020/12/26 23:38:43;;;;;;;11.15;8.20;;;;;;;0.27;74.82;99636.86;1785514;79;21048;-65
2020/12/26 23:41:16;;;;;;;10.65;7.50;;;;;;;0.22;74.83;99640.97;1813392;77;20973;-66
2020/12/26 23:43:46;;;;;;;9.93;7.47;;;;;;;0.16;74.83;99643.30;1815263;79;26524;-67
2020/12/26 23:46:15;;;;;;;12.75;8.18;;;;;;;0.09;74.84;99647.75;1815450;79;21510;-66
2020/12/26 23:48:44;;;;;;;11.78;8.05;;;;;;;-0.03;74.92;99648.97;1812991;79;21919;-66
2020/12/26 23:51:17;;;;;;;10.93;7.83;;;;;;;-0.15;75.04;99654.03;1815460;77;21476;-66
2020/12/26 23:53:46;;;;;;;10.70;7.95;;;;;;;-0.22;75.21;99655.46;1814483;79;20961;-66
2020/12/26 23:56:15;;;;;;;11.18;8.53;;;;;;;-0.27;75.45;99657.37;1815288;77;21080;-66
2020/12/26 23:58:43;;;;;;;13.80;8.38;;;;;;;-0.31;75.61;99656.34;1812769;79;22211;-65
